Time;durP1;ratioP1;P1;durP2;ratioP2;P2;SDS_P1;SDS_P2;PMS_P1;PMS_P2;Temp;Humidity;BMP_temperature;BMP_pressure;BME280_temperature;BME280_humidity;BME280_pressure;Samples;Min_cycle;Max_cycle;Signal;HPM_P1;HPM_P2
2022/06/18 00:01:39;;;;;;;11.93;6.88;;;;;;;23.61;44.41;101525.47;5019028;28;20780;-50
2022/06/18 00:04:12;;;;;;;12.80;6.25;;;;;;;23.60;44.43;101521.09;5002189;28;20391;-51
2022/06/18 00:07:00;;;;;;;13.73;6.82;;;;;;;23.62;44.26;101516.72;4993730;28;20411;-47
2022/06/18 00:09:34;;;;;;;15.32;6.80;;;;;;;23.61;44.32;101514.97;4988310;28;20420;-50
2022/06/18 00:14:50;;;;;;;12.90;6.57;;;;;;;23.62;44.34;101511.47;4994272;28;20465;-53
2022/06/18 00:17:17;;;;;;;11.83;6.17;;;;;;;23.60;44.48;101505.31;5016242;28;20405;-51
2022/06/18 00:19:43;;;;;;;11.88;6.47;;;;;;;23.62;44.42;101511.47;4996217;28;20408;-51
2022/06/18 00:22:13;;;;;;;10.70;5.95;;;;;;;23.61;44.57;101504.44;5013746;28;20402;-51
2022/06/18 00:24:41;;;;;;;10.88;5.97;;;;;;;23.61;44.80;101509.69;5001326;28;20414;-51
2022/06/18 00:27:10;;;;;;;12.00;5.65;;;;;;;23.60;44.87;101502.69;5009123;28;20396;-48
2022/06/18 00:29:36;;;;;;;10.23;5.50;;;;;;;23.56;43.92;101500.91;5001306;28;20411;-48
2022/06/18 00:32:03;;;;;;;11.80;5.57;;;;;;;23.53;44.02;101490.34;5020193;28;20371;-45
2022/06/18 00:34:28;;;;;;;11.95;5.68;;;;;;;23.59;44.62;101493.03;5012148;28;20469;-50
2022/06/18 00:36:58;;;;;;;9.30;5.20;;;;;;;23.55;44.65;101487.75;5010398;28;20502;-51
2022/06/18 00:39:23;;;;;;;13.35;5.63;;;;;;;23.60;44.53;101486.91;4990672;28;20683;-49
2022/06/18 00:41:52;;;;;;;10.98;5.90;;;;;;;23.60;43.83;101486.91;4994095;28;20455;-51
2022/06/18 00:44:33;;;;;;;9.55;5.00;;;;;;;23.60;44.64;101479.03;4994054;28;20745;-51
2022/06/18 00:47:26;;;;;;;7.85;5.10;;;;;;;23.60;44.19;101473.75;5007425;28;20393;-53
2022/06/18 00:50:05;;;;;;;10.75;5.32;;;;;;;23.61;44.47;101480.78;5041180;22;20439;-56
2022/06/18 00:52:30;;;;;;;8.35;5.15;;;;;;;23.59;44.64;101469.38;5027899;28;20881;-58
2022/06/18 00:55:00;;;;;;;10.27;5.32;;;;;;;23.61;43.76;101472.03;5023919;28;20396;-58
2022/06/18 00:57:42;;;;;;;8.30;4.70;;;;;;;23.55;44.46;101451.81;5012977;28;20770;-59
2022/06/18 01:00:11;;;;;;;9.35;4.57;;;;;;;23.59;44.29;101458.84;5004945;28;20447;-58
2022/06/18 01:02:41;;;;;;;8.03;4.60;;;;;;;23.57;44.49;101450.06;5025278;28;20812;-58
2022/06/18 01:05:23;;;;;;;8.98;4.93;;;;;;;23.60;43.88;101444.84;5021695;28;20779;-58
2022/06/18 01:08:14;;;;;;;7.93;5.20;;;;;;;23.61;44.49;101449.22;5008081;28;20451;-58
2022/06/18 01:10:48;;;;;;;8.85;4.70;;;;;;;23.60;44.92;101438.72;4996964;28;20895;-57
2022/06/18 01:13:16;;;;;;;7.80;4.60;;;;;;;23.59;44.67;101437.81;5026176;28;20401;-58
2022/06/18 01:15:47;;;;;;;7.63;4.50;;;;;;;23.61;44.59;101441.34;5011724;28;20397;-58
2022/06/18 01:18:14;;;;;;;9.23;4.97;;;;;;;23.49;45.00;101414.94;5019339;28;20405;-58
2022/06/18 01:20:46;;;;;;;8.52;4.45;;;;;;;23.60;44.54;101439.56;5028269;28;20398;-58
2022/06/18 01:23:22;;;;;;;7.57;5.00;;;;;;;23.60;44.57;101436.09;5011495;28;20932;-58
2022/06/18 01:25:50;;;;;;;6.23;4.23;;;;;;;23.60;44.45;101428.19;5010590;28;20428;-58
2022/06/18 01:28:21;;;;;;;7.45;4.57;;;;;;;23.55;44.48;101419.38;5012819;28;20408;-57
2022/06/18 01:30:46;;;;;;;6.95;4.53;;;;;;;23.59;44.33;101422.03;5028299;28;20507;-58
2022/06/18 01:33:15;;;;;;;6.85;4.28;;;;;;;23.58;44.64;101415.03;5022937;28;20509;-58
2022/06/18 01:35:43;;;;;;;6.32;4.00;;;;;;;23.57;44.10;101413.25;5025478;28;20401;-57
2022/06/18 01:38:16;;;;;;;6.18;4.10;;;;;;;23.59;44.48;101410.66;5010460;28;20459;-59
2022/06/18 01:41:49;;;;;;;6.30;3.90;;;;;;;23.57;44.25;101408.00;5019774;28;20412;-59
2022/06/18 01:43:49;;;;;;;7.15;4.30;;;;;;;23.59;44.88;101401.00;5026377;28;20715;-58
2022/06/18 01:46:15;;;;;;;5.75;3.60;;;;;;;23.58;44.20;101399.25;5028634;28;20469;-59
2022/06/18 01:48:41;;;;;;;5.20;3.97;;;;;;;23.57;43.88;101386.97;5019506;28;20443;-59
2022/06/18 01:51:29;;;;;;;8.73;4.30;;;;;;;23.58;44.45;101388.72;5015333;28;20397;-58
2022/06/18 01:53:59;;;;;;;7.15;4.07;;;;;;;23.59;44.27;101384.38;5010120;28;20409;-58
2022/06/18 01:56:30;;;;;;;7.40;3.72;;;;;;;23.59;44.33;101384.38;5027976;28;20496;-59
2022/06/18 01:59:03;;;;;;;6.90;4.00;;;;;;;23.60;44.33;101380.88;5027442;28;20409;-59
2022/06/18 02:01:32;;;;;;;6.03;3.90;;;;;;;23.59;44.07;101379.97;5026792;28;20393;-59
2022/06/18 02:04:01;;;;;;;6.00;3.85;;;;;;;23.59;43.70;101374.72;5034976;28;20495;-60
2022/06/18 02:06:33;;;;;;;5.75;3.70;;;;;;;23.59;44.69;101369.44;5024004;28;20410;-58
2022/06/18 02:09:04;;;;;;;6.83;3.90;;;;;;;23.55;44.03;101357.16;5003028;28;20405;-59
2022/06/18 02:11:32;;;;;;;6.35;4.00;;;;;;;23.58;44.37;101365.06;5011901;28;20385;-58
2022/06/18 02:14:04;;;;;;;6.63;3.55;;;;;;;23.60;44.02;101355.44;5028152;28;20480;-59
2022/06/18 02:16:37;;;;;;;5.97;4.13;;;;;;;23.60;44.19;101359.84;5013624;28;20397;-58
2022/06/18 02:19:05;;;;;;;5.88;3.42;;;;;;;23.56;44.02;101353.66;5024883;28;20492;-59
2022/06/18 02:21:35;;;;;;;4.57;3.40;;;;;;;23.59;44.33;101358.06;5027409;28;20475;-57
2022/06/18 02:24:00;;;;;;;5.53;3.72;;;;;;;23.58;43.97;101346.66;5012041;28;20489;-58
2022/06/18 02:26:30;;;;;;;5.18;3.50;;;;;;;23.59;44.63;101347.56;5025520;28;20405;-58
2022/06/18 02:28:57;;;;;;;5.35;3.50;;;;;;;23.58;44.38;101338.78;5028236;28;20413;-58
2022/06/18 02:31:26;;;;;;;5.07;3.70;;;;;;;23.57;44.07;101344.91;5030744;28;20460;-58
2022/06/18 02:33:56;;;;;;;4.72;3.50;;;;;;;23.57;44.45;101350.16;5026620;28;20381;-59
2022/06/18 02:36:30;;;;;;;5.30;3.60;;;;;;;23.57;44.49;101339.66;5024946;28;20385;-59
2022/06/18 02:39:07;;;;;;;5.65;3.88;;;;;;;23.58;43.71;101330.88;5011200;28;20953;-58
2022/06/18 02:41:36;;;;;;;5.43;3.53;;;;;;;23.55;44.64;101325.59;5028282;28;20397;-58
2022/06/18 02:44:04;;;;;;;5.25;3.30;;;;;;;23.57;44.69;101329.13;5026848;28;20805;-58
2022/06/18 02:46:37;;;;;;;4.82;3.30;;;;;;;23.58;44.15;101320.38;5026688;28;20404;-59
2022/06/18 02:49:09;;;;;;;5.18;3.47;;;;;;;23.56;44.63;101330.00;5026562;28;20932;-58
2022/06/18 02:51:43;;;;;;;4.15;3.20;;;;;;;23.57;44.04;101323.88;5030183;28;20400;-57
2022/06/18 02:54:10;;;;;;;4.80;3.20;;;;;;;23.58;44.62;101330.88;5025281;28;20388;-59
2022/06/18 02:56:35;;;;;;;5.90;3.40;;;;;;;23.51;44.25;101308.06;5025207;28;20400;-59
2022/06/18 02:59:05;;;;;;;5.00;3.70;;;;;;;23.59;44.18;101326.53;5048922;28;20402;-57
2022/06/18 03:01:39;;;;;;;4.75;3.33;;;;;;;23.56;44.16;101311.59;5014913;28;20491;-58
2022/06/18 03:04:13;;;;;;;4.15;3.50;;;;;;;23.58;44.48;101315.09;5028179;28;20480;-58
2022/06/18 03:06:46;;;;;;;4.70;3.60;;;;;;;23.57;44.37;101318.59;5047183;28;20550;-58
2022/06/18 03:09:17;;;;;;;4.07;3.10;;;;;;;23.56;44.31;101311.59;5024611;28;20426;-59
2022/06/18 03:14:29;;;;;;;3.88;3.10;;;;;;;23.57;44.19;101313.34;5029892;28;20446;-59
2022/06/18 03:16:58;;;;;;;5.00;3.37;;;;;;;23.57;44.15;101310.72;5031663;28;20783;-59
2022/06/18 03:19:31;;;;;;;4.95;3.40;;;;;;;23.56;44.06;101303.72;5036014;28;20450;-56
2022/06/18 03:22:02;;;;;;;3.42;3.05;;;;;;;23.58;44.22;101309.84;5014973;28;20908;-57
2022/06/18 03:24:27;;;;;;;5.40;3.72;;;;;;;23.57;44.00;101309.84;5033704;28;20402;-58
2022/06/18 03:26:53;;;;;;;4.63;3.40;;;;;;;23.58;43.92;101309.00;5045562;28;20395;-59
2022/06/18 03:29:22;;;;;;;3.90;3.15;;;;;;;23.59;44.11;101305.50;5034378;28;20392;-58
2022/06/18 03:31:50;;;;;;;4.85;3.35;;;;;;;23.56;44.10;101311.59;5019547;28;20491;-58
2022/06/18 03:34:24;;;;;;;3.85;3.40;;;;;;;23.59;44.50;101308.97;5033679;28;20438;-58
2022/06/18 03:36:50;;;;;;;5.10;3.20;;;;;;;23.58;44.04;101303.72;5015671;28;20455;-58
2022/06/18 03:39:17;;;;;;;4.23;3.13;;;;;;;23.59;44.05;101311.59;5034894;28;20435;-57
2022/06/18 03:41:52;;;;;;;4.18;3.22;;;;;;;23.57;44.01;101301.97;5045376;28;20392;-58
2022/06/18 03:44:17;;;;;;;5.13;3.55;;;;;;;23.59;44.55;101316.88;5032169;28;20442;-57
2022/06/18 03:46:48;;;;;;;3.60;3.05;;;;;;;23.59;43.92;101314.25;5050677;28;20884;-58
2022/06/18 03:49:29;;;;;;;4.33;3.10;;;;;;;23.59;44.33;101316.88;5048006;28;20533;-58
2022/06/18 03:51:56;;;;;;;3.65;2.97;;;;;;;23.52;43.85;101304.56;5034126;28;20847;-54
2022/06/18 03:54:21;;;;;;;3.95;3.00;;;;;;;23.49;44.05;101299.28;5033461;28;20383;-57
2022/06/18 03:56:49;;;;;;;3.22;2.80;;;;;;;23.59;44.46;101308.97;5032321;28;20892;-59
2022/06/18 03:59:15;;;;;;;3.70;3.00;;;;;;;23.58;44.04;101312.47;5017516;28;20423;-58
2022/06/18 04:01:43;;;;;;;4.05;3.10;;;;;;;23.59;44.52;101311.59;5034721;28;20516;-57
2022/06/18 04:04:10;;;;;;;4.68;3.20;;;;;;;23.59;44.50;101311.59;5018180;28;20399;-57
2022/06/18 04:06:38;;;;;;;3.63;3.17;;;;;;;23.55;44.02;101304.56;5028647;28;20506;-54
2022/06/18 04:09:06;;;;;;;3.90;3.13;;;;;;;23.59;44.48;101316.88;5035080;28;20450;-58
2022/06/18 04:11:35;;;;;;;3.92;2.95;;;;;;;23.59;44.42;101311.59;5050500;28;21012;-58
2022/06/18 04:14:05;;;;;;;3.88;3.00;;;;;;;23.62;43.89;101310.75;5016203;28;20391;-57
2022/06/18 04:16:40;;;;;;;4.00;2.83;;;;;;;23.55;44.09;101304.56;5012568;28;20919;-59
2022/06/18 04:19:08;;;;;;;3.92;3.00;;;;;;;23.58;44.06;101309.84;5014428;28;20742;-57
2022/06/18 04:21:36;;;;;;;4.50;3.10;;;;;;;23.61;43.80;101315.13;5050376;28;20796;-57
2022/06/18 04:24:04;;;;;;;4.60;3.15;;;;;;;23.60;43.80;101318.63;5033230;28;20431;-57
2022/06/18 04:26:35;;;;;;;3.23;2.80;;;;;;;23.62;44.47;101316.03;5027383;28;20486;-58
2022/06/18 04:29:07;;;;;;;3.67;3.00;;;;;;;23.62;43.70;101322.16;5033051;28;20934;-57
2022/06/18 04:31:40;;;;;;;4.38;3.05;;;;;;;23.62;44.26;101318.66;5030711;28;20408;-59
2022/06/18 04:34:08;;;;;;;3.30;2.97;;;;;;;23.62;43.93;101324.78;5046489;28;20438;-58
2022/06/18 04:36:41;;;;;;;3.80;2.88;;;;;;;23.61;43.65;101315.13;5029479;28;20406;-58
2022/06/18 04:39:07;;;;;;;4.30;3.03;;;;;;;23.62;44.73;101311.63;5015475;28;20872;-57
2022/06/18 04:41:33;;;;;;;4.22;2.70;;;;;;;23.62;44.74;101311.63;5032447;28;20435;-56
2022/06/18 04:43:58;;;;;;;3.30;3.00;;;;;;;23.63;44.04;101313.38;5032005;28;20486;-58
2022/06/18 04:46:26;;;;;;;3.97;3.05;;;;;;;23.63;44.38;101313.38;5012583;28;20403;-55
2022/06/18 04:48:58;;;;;;;3.63;2.92;;;;;;;23.63;44.59;101313.38;5046702;28;20405;-56
2022/06/18 04:51:29;;;;;;;3.10;2.70;;;;;;;23.62;44.12;101316.88;5014794;28;20402;-59
2022/06/18 04:54:02;;;;;;;3.45;3.00;;;;;;;23.64;44.60;101317.78;5033053;28;20891;-58
2022/06/18 04:56:33;;;;;;;4.13;2.95;;;;;;;23.64;43.97;101316.91;5031434;28;20407;-59
2022/06/18 04:59:04;;;;;;;3.78;2.95;;;;;;;23.64;44.67;101325.66;5014477;28;20528;-59
2022/06/18 05:01:32;;;;;;;3.65;3.10;;;;;;;23.66;44.24;101327.41;5032781;28;20400;-58
2022/06/18 05:04:00;;;;;;;3.38;2.88;;;;;;;23.66;44.64;101337.94;5032027;28;20733;-58
2022/06/18 05:06:28;;;;;;;3.55;2.83;;;;;;;23.66;44.17;101337.94;5048787;28;20403;-58
2022/06/18 05:08:54;;;;;;;4.00;2.90;;;;;;;23.64;44.04;101330.91;5048112;28;20900;-58
2022/06/18 05:11:20;;;;;;;3.45;2.88;;;;;;;23.67;44.53;101329.19;5015586;28;20425;-58
2022/06/18 05:13:46;;;;;;;3.33;2.83;;;;;;;23.66;44.71;101322.16;5025890;28;20505;-59
2022/06/18 05:16:11;;;;;;;4.10;2.77;;;;;;;23.66;44.57;101320.44;5024307;28;20881;-57
2022/06/18 05:18:44;;;;;;;3.85;3.05;;;;;;;23.59;44.85;101300.22;5029038;28;20856;-58
2022/06/18 05:21:10;;;;;;;4.95;3.00;;;;;;;23.68;44.44;101321.31;5024833;28;20391;-58
2022/06/18 05:23:38;;;;;;;3.80;2.90;;;;;;;23.68;44.05;101307.28;5032358;28;20635;-59
2022/06/18 05:26:09;;;;;;;3.63;2.88;;;;;;;23.69;44.25;101311.66;5011981;28;20400;-57
2022/06/18 05:28:34;;;;;;;3.58;2.85;;;;;;;23.66;44.83;101301.13;5042944;28;20404;-58
2022/06/18 05:31:00;;;;;;;4.40;2.80;;;;;;;23.70;45.05;101310.78;5030561;28;20868;-56
2022/06/18 05:33:25;;;;;;;3.87;2.90;;;;;;;23.69;44.50;101306.41;5023750;28;20403;-55
2022/06/18 05:35:53;;;;;;;4.00;2.80;;;;;;;23.69;44.66;101290.63;5028377;28;20437;-59
2022/06/18 05:38:24;;;;;;;3.40;2.80;;;;;;;23.68;44.25;101288.88;5030303;28;20876;-59
2022/06/18 05:40:51;;;;;;;3.40;2.90;;;;;;;23.70;44.52;101292.38;5015645;28;20750;-59
2022/06/18 05:43:17;;;;;;;4.13;2.90;;;;;;;23.69;44.82;101291.50;5026780;28;20404;-57
2022/06/18 05:45:46;;;;;;;3.28;2.70;;;;;;;23.70;44.28;101277.50;5030078;28;20399;-57
2022/06/18 05:48:12;;;;;;;4.40;3.08;;;;;;;23.69;44.77;101269.59;5041327;28;20396;-60
2022/06/18 05:50:37;;;;;;;3.30;2.70;;;;;;;23.70;44.85;101281.88;5027742;28;20399;-62
2022/06/18 05:53:03;;;;;;;4.10;2.97;;;;;;;23.60;44.78;101276.56;5042407;28;20395;-62
2022/06/18 05:55:30;;;;;;;4.67;3.30;;;;;;;23.70;44.88;101287.13;5030715;28;20413;-62
2022/06/18 05:57:58;;;;;;;4.00;3.10;;;;;;;23.72;45.19;101290.63;5029320;28;20403;-62
2022/06/18 06:00:34;;;;;;;4.93;3.10;;;;;;;23.74;44.89;101281.91;5012438;28;20462;-62
2022/06/18 06:02:59;;;;;;;4.13;3.10;;;;;;;23.59;45.62;101259.03;5043573;28;20466;-62
2022/06/18 06:05:28;;;;;;;5.63;3.35;;;;;;;23.81;45.16;101285.41;5028977;28;20427;-62
2022/06/18 06:07:53;;;;;;;8.68;3.35;;;;;;;23.83;44.75;101288.94;5030131;28;20474;-63
2022/06/18 06:13:22;;;;;;;9.75;4.22;;;;;;;23.75;44.95;101285.41;5045074;28;20764;-72
2022/06/18 06:15:50;;;;;;;11.38;4.43;;;;;;;23.67;44.85;101295.00;5020857;28;20403;-61
2022/06/18 06:18:18;;;;;;;8.32;3.70;;;;;;;23.57;44.76;101279.16;5025022;28;20411;-59
2022/06/18 06:20:48;;;;;;;12.95;4.90;;;;;;;23.61;44.07;101288.84;5043929;28;20451;-57
2022/06/18 06:23:14;;;;;;;6.00;3.60;;;;;;;23.63;45.07;101287.09;5044678;28;20423;-57
2022/06/18 06:25:41;;;;;;;7.13;3.58;;;;;;;23.62;44.44;101285.34;5009719;28;20443;-51
2022/06/18 06:28:18;;;;;;;5.50;3.60;;;;;;;23.60;44.30;101287.06;5043321;28;20393;-52
2022/06/18 06:30:50;;;;;;;5.53;4.10;;;;;;;23.61;44.49;101283.56;5037714;28;20835;-59
2022/06/18 06:33:16;;;;;;;5.72;4.07;;;;;;;23.59;43.87;101295.84;5030673;28;20418;-54
2022/06/18 06:35:47;;;;;;;5.82;3.75;;;;;;;23.59;44.17;101287.94;5006828;28;20476;-52
2022/06/18 06:38:13;;;;;;;8.55;4.07;;;;;;;23.49;43.96;101273.00;5018764;28;20436;-51
2022/06/18 06:40:40;;;;;;;8.05;3.90;;;;;;;23.57;44.00;101278.31;5021256;28;20395;-53
2022/06/18 06:43:07;;;;;;;5.85;3.88;;;;;;;23.54;44.73;101281.78;5026208;28;20665;-51
2022/06/18 06:45:34;;;;;;;5.38;3.97;;;;;;;23.57;44.58;101281.81;5033735;28;20886;-50
2022/06/18 06:47:59;;;;;;;7.80;3.78;;;;;;;23.59;44.26;101284.47;5009994;28;20442;-56
2022/06/18 06:50:28;;;;;;;5.57;3.80;;;;;;;23.54;44.55;101276.53;5054182;22;20499;-46
2022/06/18 06:52:56;;;;;;;6.85;4.10;;;;;;;23.57;44.28;101286.19;5026629;28;20401;-42
2022/06/18 06:58:23;;;;;;;8.27;4.05;;;;;;;23.57;44.33;101281.81;5026740;28;20420;-44
2022/06/18 07:00:56;;;;;;;8.77;4.27;;;;;;;23.57;44.68;101287.06;5029531;28;20394;-44
2022/06/18 07:03:28;;;;;;;6.53;4.22;;;;;;;23.57;44.94;101281.81;5019656;28;20472;-49
2022/06/18 07:05:56;;;;;;;6.53;4.40;;;;;;;23.59;44.68;101290.56;5029661;28;20412;-46
2022/06/18 07:08:25;;;;;;;7.50;4.07;;;;;;;23.57;45.00;101296.72;5015407;28;20392;-43
2022/06/18 07:10:56;;;;;;;7.40;4.00;;;;;;;23.59;44.44;101294.97;5007937;28;20452;-44
2022/06/18 07:13:22;;;;;;;5.72;4.07;;;;;;;23.57;44.25;101308.09;5035063;28;20376;-43
2022/06/18 07:15:51;;;;;;;6.73;3.97;;;;;;;23.57;45.12;101307.22;5052985;28;21192;-43
2022/06/18 07:18:24;;;;;;;7.63;4.05;;;;;;;23.57;44.68;101310.72;5054047;28;20402;-48
2022/06/18 07:20:50;;;;;;;5.45;3.85;;;;;;;23.61;44.42;101314.25;5029939;28;20391;-39
2022/06/18 07:23:16;;;;;;;6.13;4.43;;;;;;;23.62;44.91;101316.88;5036093;28;20375;-44
2022/06/18 07:25:41;;;;;;;10.55;4.90;;;;;;;23.61;45.12;101315.13;5053967;28;20390;-44
2022/06/18 07:28:07;;;;;;;6.40;4.15;;;;;;;23.63;45.17;101307.25;5019393;28;20388;-49
2022/06/18 07:30:34;;;;;;;8.57;4.55;;;;;;;23.64;44.86;101309.03;5019352;28;20399;-45
2022/06/18 07:33:03;;;;;;;8.57;4.70;;;;;;;23.66;45.13;101312.53;5035900;28;20407;-41
2022/06/18 07:35:30;;;;;;;5.47;3.88;;;;;;;23.67;45.52;101300.25;5052743;28;20421;-43
2022/06/18 07:37:59;;;;;;;7.80;4.60;;;;;;;23.63;45.26;101308.13;5008715;28;20399;-45
2022/06/18 07:40:29;;;;;;;5.82;4.50;;;;;;;23.62;45.15;101306.38;5033342;28;20927;-48
2022/06/18 07:42:56;;;;;;;5.88;4.53;;;;;;;23.64;45.62;101311.66;5015910;28;20384;-43
2022/06/18 07:45:24;;;;;;;7.18;4.25;;;;;;;23.63;45.93;101302.88;5040423;28;20392;-43
2022/06/18 07:47:51;;;;;;;6.50;4.40;;;;;;;23.68;45.15;101294.13;5035609;28;20417;-42
2022/06/18 07:50:19;;;;;;;7.18;4.32;;;;;;;23.67;45.16;101297.63;5035384;28;20383;-45
2022/06/18 07:52:44;;;;;;;7.28;4.20;;;;;;;23.63;45.46;101297.59;5053092;28;20718;-43
2022/06/18 07:55:25;;;;;;;9.13;4.78;;;;;;;23.67;45.54;101313.41;5035250;28;20382;-43
2022/06/18 07:57:50;;;;;;;9.00;4.80;;;;;;;23.69;45.73;101301.13;5035161;28;20476;-41
2022/06/18 08:00:18;;;;;;;7.47;4.80;;;;;;;23.69;46.22;101294.16;5046603;28;20394;-47
2022/06/18 08:02:44;;;;;;;7.60;4.65;;;;;;;23.69;46.13;101301.13;5073053;28;20435;-44
2022/06/18 08:05:11;;;;;;;6.78;4.13;;;;;;;23.70;46.20;101300.28;5034312;28;20900;-42
2022/06/18 08:07:39;;;;;;;8.43;4.45;;;;;;;23.72;45.66;101301.16;5018731;28;20380;-45
2022/06/18 08:10:06;;;;;;;6.75;4.18;;;;;;;23.75;46.02;101301.16;5033131;28;20393;-43
2022/06/18 08:12:32;;;;;;;7.97;4.30;;;;;;;23.77;46.44;101299.44;5015491;28;20734;-41
2022/06/18 08:14:58;;;;;;;7.30;4.47;;;;;;;23.77;45.98;101299.44;5029894;28;20861;-44
2022/06/18 08:17:25;;;;;;;6.35;4.57;;;;;;;23.78;45.63;101293.28;5032889;28;20476;-46
2022/06/18 08:19:50;;;;;;;5.75;3.92;;;;;;;23.78;45.49;101293.28;5033123;28;20383;-44
2022/06/18 08:22:20;;;;;;;8.27;4.60;;;;;;;23.78;46.43;101301.19;5051014;28;20466;-42
2022/06/18 08:24:45;;;;;;;6.68;4.72;;;;;;;23.79;46.19;101305.56;5034229;28;20372;-47
2022/06/18 08:27:14;;;;;;;7.97;4.00;;;;;;;23.76;46.38;101292.41;5033658;28;20379;-43
2022/06/18 08:29:42;;;;;;;7.13;4.38;;;;;;;23.81;46.96;101306.47;5034585;28;20379;-40
2022/06/18 08:32:08;;;;;;;5.82;4.13;;;;;;;23.82;45.98;101305.59;5034979;28;20376;-41
2022/06/18 08:34:36;;;;;;;6.77;4.00;;;;;;;23.82;46.97;101302.97;5053002;28;20421;-41
2022/06/18 08:37:06;;;;;;;7.23;5.07;;;;;;;23.83;46.77;101306.47;5043503;28;20406;-44
2022/06/18 08:39:32;;;;;;;6.53;4.50;;;;;;;23.81;46.10;101306.47;5034987;28;20372;-41
2022/06/18 08:42:04;;;;;;;6.35;4.38;;;;;;;23.83;46.78;101304.72;5025811;28;20398;-45
2022/06/18 08:44:52;;;;;;;6.00;4.15;;;;;;;23.84;47.06;101317.00;5047815;28;20407;-43
2022/06/18 08:47:55;;;;;;;8.45;4.53;;;;;;;23.87;47.12;101306.53;5052060;28;20635;-41
2022/06/18 08:50:33;;;;;;;6.10;4.32;;;;;;;23.89;46.79;101309.13;5034253;28;20379;-43
2022/06/18 08:53:07;;;;;;;8.43;4.38;;;;;;;23.77;47.33;101296.78;5051629;28;20442;-48
2022/06/18 08:55:54;;;;;;;6.23;4.20;;;;;;;23.92;46.75;101325.84;5034299;28;20457;-43
2022/06/18 08:58:44;;;;;;;9.40;4.90;;;;;;;23.92;47.76;101325.84;5051906;28;20394;-43
2022/06/18 09:01:13;;;;;;;7.20;4.80;;;;;;;23.93;46.83;101319.69;5052012;28;20371;-40
2022/06/18 09:04:04;;;;;;;7.83;4.80;;;;;;;23.93;47.39;101331.97;5033967;28;20393;-43
2022/06/18 09:07:06;;;;;;;6.95;4.70;;;;;;;23.94;47.77;101333.72;5044301;28;20394;-43
2022/06/18 09:09:50;;;;;;;8.27;5.30;;;;;;;23.93;47.39;101338.13;5031892;28;20853;-43
2022/06/18 09:12:35;;;;;;;8.30;5.20;;;;;;;23.96;47.98;101346.88;5023868;28;20411;-50
2022/06/18 09:15:14;;;;;;;10.10;5.50;;;;;;;23.95;47.71;101339.88;5032775;28;20364;-46
2022/06/18 09:18:00;;;;;;;9.07;5.80;;;;;;;23.95;47.91;101339.88;5017666;28;20434;-42
2022/06/18 09:20:36;;;;;;;10.33;6.20;;;;;;;23.96;47.92;101357.41;5043314;28;20402;-48
2022/06/18 09:23:09;;;;;;;11.95;7.68;;;;;;;23.99;48.83;101346.91;5029812;28;20468;-42
2022/06/18 09:25:42;;;;;;;12.20;8.57;;;;;;;24.01;48.99;101345.19;5042113;28;20387;-45
2022/06/18 09:28:14;;;;;;;8.70;6.55;;;;;;;24.03;49.62;101338.19;5016950;28;20376;-42
2022/06/18 09:30:59;;;;;;;9.32;5.70;;;;;;;24.04;49.79;101350.47;5033595;28;20377;-46
2022/06/18 09:33:30;;;;;;;8.20;5.57;;;;;;;24.05;50.24;101347.81;5033939;28;20415;-43
2022/06/18 09:36:01;;;;;;;10.40;5.53;;;;;;;24.01;49.98;101350.44;5049605;28;20399;-43
2022/06/18 09:38:35;;;;;;;8.38;5.15;;;;;;;24.04;48.99;101355.72;5033850;28;20448;-47
2022/06/18 09:41:07;;;;;;;13.23;5.63;;;;;;;24.00;49.31;101359.22;5033610;28;20475;-41
2022/06/18 09:43:49;;;;;;;9.25;5.20;;;;;;;23.93;49.20;101348.63;5033632;28;20789;-41
2022/06/18 09:46:23;;;;;;;10.18;5.25;;;;;;;23.99;49.27;101360.06;5016231;28;20380;-41
2022/06/18 09:48:49;;;;;;;8.45;4.60;;;;;;;23.99;49.36;101367.94;5015851;28;20395;-46
2022/06/18 09:52:27;;;;;;;8.13;4.43;;;;;;;23.98;49.46;101371.44;5033270;28;20381;-49
2022/06/18 09:54:49;;;;;;;6.80;5.00;;;;;;;23.98;49.44;101371.44;4967101;28;20469;-44
2022/06/18 09:57:21;;;;;;;7.18;4.50;;;;;;;23.98;49.35;101374.09;5051244;28;20403;-41
2022/06/18 10:00:03;;;;;;;8.35;4.43;;;;;;;23.98;49.16;101376.72;5016859;28;20422;-44
2022/06/18 10:02:32;;;;;;;7.03;4.70;;;;;;;23.98;49.83;101374.94;5014022;28;20444;-46
2022/06/18 10:07:52;;;;;;;7.50;4.20;;;;;;;23.99;49.30;101389.00;5016063;28;20481;-43
2022/06/18 10:10:21;;;;;;;7.70;4.35;;;;;;;23.99;49.38;101373.22;5013615;28;20381;-44
2022/06/18 10:12:53;;;;;;;7.57;4.82;;;;;;;23.98;48.73;101371.44;5013678;28;20821;-43
2022/06/18 10:15:23;;;;;;;5.93;4.38;;;;;;;23.98;48.95;101371.44;5032855;28;20381;-42
2022/06/18 10:18:11;;;;;;;7.38;4.32;;;;;;;23.97;49.28;101374.97;5031420;28;20403;-43
2022/06/18 10:20:59;;;;;;;7.07;4.28;;;;;;;23.97;48.75;101381.09;5037322;28;20384;-47
2022/06/18 10:23:47;;;;;;;9.23;4.72;;;;;;;23.98;48.76;101400.41;5019860;28;20395;-46
2022/06/18 10:26:35;;;;;;;6.13;4.00;;;;;;;23.98;49.62;101389.88;5037424;28;20385;-45
2022/06/18 10:29:06;;;;;;;6.72;4.20;;;;;;;23.99;49.13;101399.53;5055174;28;20380;-45
2022/06/18 10:31:37;;;;;;;7.72;4.35;;;;;;;23.99;49.00;101391.63;5054138;28;20752;-45
2022/06/18 10:34:24;;;;;;;5.55;3.92;;;;;;;24.00;49.08;101406.56;5055053;28;20474;-43
2022/06/18 10:37:02;;;;;;;6.07;4.38;;;;;;;24.00;48.86;101401.31;5054891;28;20370;-45
2022/06/18 10:40:04;;;;;;;5.03;3.83;;;;;;;24.03;48.86;101398.69;5036577;28;20404;-43
2022/06/18 10:42:39;;;;;;;6.47;3.88;;;;;;;24.03;48.15;101385.53;5012582;28;20389;-43
2022/06/18 10:45:07;;;;;;;5.90;4.00;;;;;;;24.01;48.99;101382.03;5034733;28;20365;-43
2022/06/18 10:47:35;;;;;;;6.30;4.13;;;;;;;24.03;48.31;101391.66;5035084;28;20470;-44
2022/06/18 10:50:05;;;;;;;5.53;4.00;;;;;;;24.04;48.31;101390.78;5036539;28;20396;-44
2022/06/18 10:52:31;;;;;;;6.00;3.90;;;;;;;24.02;48.42;101381.16;5020022;28;20388;-43
2022/06/18 10:55:16;;;;;;;6.13;3.80;;;;;;;23.99;48.29;101387.22;5019846;28;20387;-46
2022/06/18 10:57:50;;;;;;;6.57;3.70;;;;;;;24.01;47.86;101387.28;5054225;28;20441;-44
2022/06/18 11:00:25;;;;;;;5.87;4.07;;;;;;;24.01;48.70;101389.91;5020233;28;20948;-46
2022/06/18 11:02:56;;;;;;;6.88;3.83;;;;;;;24.02;48.10;101389.03;5053914;28;20394;-43
2022/06/18 11:05:33;;;;;;;7.13;4.17;;;;;;;24.02;47.91;101394.31;5056509;28;20396;-41
2022/06/18 11:08:03;;;;;;;5.82;3.90;;;;;;;24.03;48.35;101396.06;5056604;28;20412;-43
2022/06/18 11:10:36;;;;;;;5.53;3.65;;;;;;;24.03;48.66;101401.34;5038766;28;20772;-43
2022/06/18 11:13:03;;;;;;;5.82;3.50;;;;;;;24.03;48.38;101396.06;5036356;28;20474;-45
2022/06/18 11:15:38;;;;;;;4.90;3.63;;;;;;;24.01;48.47;101397.81;5019918;28;20486;-46
2022/06/18 11:18:18;;;;;;;5.05;3.75;;;;;;;24.03;47.72;101393.44;5027317;28;20406;-42
2022/06/18 11:20:58;;;;;;;5.50;3.45;;;;;;;24.02;47.77;101389.91;5036014;28;20376;-44
2022/06/18 11:23:23;;;;;;;6.90;3.60;;;;;;;24.03;48.00;101390.81;5035984;28;20398;-47
2022/06/18 11:25:54;;;;;;;6.30;3.72;;;;;;;23.97;48.00;101375.81;5036344;28;20372;-42
2022/06/18 11:28:36;;;;;;;5.40;3.60;;;;;;;24.05;48.30;101399.59;5036468;28;20501;-48
2022/06/18 11:31:03;;;;;;;6.50;3.50;;;;;;;24.06;48.07;101391.69;5036116;28;20375;-43
2022/06/18 11:33:36;;;;;;;4.53;3.45;;;;;;;24.06;47.51;101401.34;5019354;28;20403;-40
2022/06/18 11:36:21;;;;;;;6.15;3.50;;;;;;;24.08;48.21;101399.59;5053912;28;20379;-46
2022/06/18 11:38:56;;;;;;;5.55;3.15;;;;;;;24.07;47.74;101418.91;5019797;28;20392;-46
2022/06/18 11:41:40;;;;;;;5.35;3.30;;;;;;;24.10;47.95;101418.91;5019383;28;20474;-40
2022/06/18 11:44:19;;;;;;;5.30;3.70;;;;;;;24.10;47.27;101413.66;5035553;28;20478;-46
2022/06/18 11:46:52;;;;;;;5.47;3.17;;;;;;;24.10;47.66;101403.13;5036348;28;20744;-42
2022/06/18 11:49:30;;;;;;;4.72;3.00;;;;;;;24.11;47.84;101404.88;5021589;28;20869;-41
2022/06/18 11:51:58;;;;;;;4.38;3.03;;;;;;;24.11;47.80;101404.88;5033954;28;20368;-42
2022/06/18 11:54:34;;;;;;;4.38;2.70;;;;;;;24.11;47.65;101404.88;5015438;28;20384;-44
2022/06/18 11:57:36;;;;;;;5.85;2.88;;;;;;;24.13;48.04;101402.25;5015409;28;20382;-44
2022/06/18 12:00:13;;;;;;;4.55;2.80;;;;;;;24.13;48.13;101397.88;5039814;28;20445;-43